sensor_id;sensor_type;location;lat;lon;timestamp;P1;durP1;ratioP1;P2;durP2;ratioP2
66581;SDS011;53438;48.898;2.308;2022-12-18T00:01:40;29.63;;;14.40;;
66581;SDS011;53438;48.898;2.308;2022-12-18T00:04:06;33.85;;;14.63;;
66581;SDS011;53438;48.898;2.308;2022-12-18T00:06:39;36.35;;;13.85;;
66581;SDS011;53438;48.898;2.308;2022-12-18T00:09:05;34.27;;;13.77;;
66581;SDS011;53438;48.898;2.308;2022-12-18T00:11:30;31.60;;;13.07;;
66581;SDS011;53438;48.898;2.308;2022-12-18T00:13:57;35.88;;;13.77;;
66581;SDS011;53438;48.898;2.308;2022-12-18T00:16:25;34.58;;;14.65;;
66581;SDS011;53438;48.898;2.308;2022-12-18T00:18:52;30.77;;;13.65;;
66581;SDS011;53438;48.898;2.308;2022-12-18T00:21:19;32.00;;;13.32;;
66581;SDS011;53438;48.898;2.308;2022-12-18T00:23:45;32.80;;;14.73;;
66581;SDS011;53438;48.898;2.308;2022-12-18T00:26:16;32.17;;;14.23;;
66581;SDS011;53438;48.898;2.308;2022-12-18T00:28:44;31.30;;;14.23;;
66581;SDS011;53438;48.898;2.308;2022-12-18T00:31:11;33.08;;;14.90;;
66581;SDS011;53438;48.898;2.308;2022-12-18T00:33:39;40.33;;;15.23;;
66581;SDS011;53438;48.898;2.308;2022-12-18T00:36:05;28.90;;;12.38;;
66581;SDS011;53438;48.898;2.308;2022-12-18T00:38:32;27.93;;;13.70;;
66581;SDS011;53438;48.898;2.308;2022-12-18T00:40:58;36.17;;;15.73;;
66581;SDS011;53438;48.898;2.308;2022-12-18T00:43:23;35.37;;;15.70;;
66581;SDS011;53438;48.898;2.308;2022-12-18T00:45:49;32.67;;;14.60;;
66581;SDS011;53438;48.898;2.308;2022-12-18T00:48:14;32.93;;;14.37;;
66581;SDS011;53438;48.898;2.308;2022-12-18T00:50:40;32.33;;;13.52;;
66581;SDS011;53438;48.898;2.308;2022-12-18T00:53:05;31.63;;;13.87;;
66581;SDS011;53438;48.898;2.308;2022-12-18T00:55:31;34.13;;;14.73;;
66581;SDS011;53438;48.898;2.308;2022-12-18T00:57:56;33.73;;;14.13;;
66581;SDS011;53438;48.898;2.308;2022-12-18T04:02:15;28.85;;;12.68;;
66581;SDS011;53438;48.898;2.308;2022-12-18T04:04:42;28.85;;;13.60;;
66581;SDS011;53438;48.898;2.308;2022-12-18T04:07:09;26.55;;;12.55;;
66581;SDS011;53438;48.898;2.308;2022-12-18T04:09:36;33.60;;;13.50;;
66581;SDS011;53438;48.898;2.308;2022-12-18T04:12:04;29.27;;;13.82;;
66581;SDS011;53438;48.898;2.308;2022-12-18T04:14:30;31.88;;;13.68;;
66581;SDS011;53438;48.898;2.308;2022-12-18T04:17:00;27.50;;;13.25;;
66581;SDS011;53438;48.898;2.308;2022-12-18T04:19:26;29.10;;;12.77;;
66581;SDS011;53438;48.898;2.308;2022-12-18T04:21:51;28.95;;;13.32;;
66581;SDS011;53438;48.898;2.308;2022-12-18T04:24:17;31.08;;;14.05;;
66581;SDS011;53438;48.898;2.308;2022-12-18T04:26:42;25.97;;;12.90;;
66581;SDS011;53438;48.898;2.308;2022-12-18T04:29:07;26.30;;;12.97;;
66581;SDS011;53438;48.898;2.308;2022-12-18T04:31:33;32.73;;;14.90;;
66581;SDS011;53438;48.898;2.308;2022-12-18T04:33:58;31.77;;;13.73;;
66581;SDS011;53438;48.898;2.308;2022-12-18T04:36:24;29.27;;;12.83;;
66581;SDS011;53438;48.898;2.308;2022-12-18T04:38:49;28.33;;;12.53;;
66581;SDS011;53438;48.898;2.308;2022-12-18T04:41:15;30.90;;;13.40;;
66581;SDS011;53438;48.898;2.308;2022-12-18T04:43:40;31.03;;;13.33;;
66581;SDS011;53438;48.898;2.308;2022-12-18T04:46:06;28.73;;;12.93;;
66581;SDS011;53438;48.898;2.308;2022-12-18T04:48:32;31.27;;;13.95;;
66581;SDS011;53438;48.898;2.308;2022-12-18T04:50:58;28.20;;;12.70;;
66581;SDS011;53438;48.898;2.308;2022-12-18T04:53:24;30.33;;;13.45;;
66581;SDS011;53438;48.898;2.308;2022-12-18T04:55:49;28.43;;;12.77;;
66581;SDS011;53438;48.898;2.308;2022-12-18T04:58:15;28.83;;;13.20;;
66581;SDS011;53438;48.898;2.308;2022-12-18T05:00:40;26.77;;;12.77;;
66581;SDS011;53438;48.898;2.308;2022-12-18T05:03:06;30.92;;;13.35;;
66581;SDS011;53438;48.898;2.308;2022-12-18T05:05:31;25.73;;;11.97;;
66581;SDS011;53438;48.898;2.308;2022-12-18T05:07:59;33.90;;;13.40;;
66581;SDS011;53438;48.898;2.308;2022-12-18T05:10:25;31.15;;;13.63;;
66581;SDS011;53438;48.898;2.308;2022-12-18T05:12:50;28.60;;;13.10;;
66581;SDS011;53438;48.898;2.308;2022-12-18T05:15:33;32.43;;;13.60;;
66581;SDS011;53438;48.898;2.308;2022-12-18T05:18:00;30.15;;;12.32;;
66581;SDS011;53438;48.898;2.308;2022-12-18T05:20:26;32.17;;;14.80;;
66581;SDS011;53438;48.898;2.308;2022-12-18T05:22:52;32.58;;;13.82;;
66581;SDS011;53438;48.898;2.308;2022-12-18T05:25:18;28.97;;;13.07;;
66581;SDS011;53438;48.898;2.308;2022-12-18T05:27:44;34.65;;;14.07;;
66581;SDS011;53438;48.898;2.308;2022-12-18T05:30:10;27.97;;;13.10;;
66581;SDS011;53438;48.898;2.308;2022-12-18T05:32:36;29.60;;;11.65;;
66581;SDS011;53438;48.898;2.308;2022-12-18T05:35:02;31.80;;;13.55;;
66581;SDS011;53438;48.898;2.308;2022-12-18T05:37:28;34.60;;;13.73;;
66581;SDS011;53438;48.898;2.308;2022-12-18T05:39:53;29.90;;;13.10;;
66581;SDS011;53438;48.898;2.308;2022-12-18T05:42:19;31.13;;;13.47;;
66581;SDS011;53438;48.898;2.308;2022-12-18T05:44:44;28.07;;;12.43;;
66581;SDS011;53438;48.898;2.308;2022-12-18T05:47:10;33.53;;;14.60;;
66581;SDS011;53438;48.898;2.308;2022-12-18T05:49:35;28.50;;;12.23;;
66581;SDS011;53438;48.898;2.308;2022-12-18T05:52:01;30.50;;;13.43;;
66581;SDS011;53438;48.898;2.308;2022-12-18T05:54:27;30.77;;;13.17;;
66581;SDS011;53438;48.898;2.308;2022-12-18T05:56:53;30.40;;;13.63;;
66581;SDS011;53438;48.898;2.308;2022-12-18T05:59:19;34.20;;;13.80;;
66581;SDS011;53438;48.898;2.308;2022-12-18T06:01:44;33.28;;;14.00;;
66581;SDS011;53438;48.898;2.308;2022-12-18T06:04:10;32.10;;;13.10;;
66581;SDS011;53438;48.898;2.308;2022-12-18T06:06:35;28.70;;;14.17;;
66581;SDS011;53438;48.898;2.308;2022-12-18T06:09:00;30.97;;;13.87;;
66581;SDS011;53438;48.898;2.308;2022-12-18T06:11:26;31.17;;;14.43;;
66581;SDS011;53438;48.898;2.308;2022-12-18T06:13:52;25.95;;;12.68;;
66581;SDS011;53438;48.898;2.308;2022-12-18T06:16:18;29.77;;;12.70;;
66581;SDS011;53438;48.898;2.308;2022-12-18T06:18:44;30.48;;;13.82;;
66581;SDS011;53438;48.898;2.308;2022-12-18T06:21:09;27.33;;;12.43;;
66581;SDS011;53438;48.898;2.308;2022-12-18T06:23:35;25.57;;;11.30;;
66581;SDS011;53438;48.898;2.308;2022-12-18T06:26:10;29.38;;;11.85;;
66581;SDS011;53438;48.898;2.308;2022-12-18T06:28:37;27.23;;;11.88;;
66581;SDS011;53438;48.898;2.308;2022-12-18T06:31:03;29.08;;;13.73;;
66581;SDS011;53438;48.898;2.308;2022-12-18T06:33:29;31.13;;;14.03;;
66581;SDS011;53438;48.898;2.308;2022-12-18T06:35:58;33.25;;;14.52;;
66581;SDS011;53438;48.898;2.308;2022-12-18T06:38:26;36.70;;;15.53;;
66581;SDS011;53438;48.898;2.308;2022-12-18T06:40:51;26.40;;;13.13;;
66581;SDS011;53438;48.898;2.308;2022-12-18T06:43:16;30.77;;;13.82;;
66581;SDS011;53438;48.898;2.308;2022-12-18T06:45:42;29.87;;;13.03;;
66581;SDS011;53438;48.898;2.308;2022-12-18T06:48:07;30.20;;;13.00;;
66581;SDS011;53438;48.898;2.308;2022-12-18T06:50:32;31.50;;;12.73;;
66581;SDS011;53438;48.898;2.308;2022-12-18T06:52:58;28.47;;;12.40;;
66581;SDS011;53438;48.898;2.308;2022-12-18T06:55:24;27.98;;;13.55;;
66581;SDS011;53438;48.898;2.308;2022-12-18T06:57:50;28.73;;;13.17;;
66581;SDS011;53438;48.898;2.308;2022-12-18T07:00:15;27.03;;;12.20;;
66581;SDS011;53438;48.898;2.308;2022-12-18T07:02:41;32.30;;;11.98;;
66581;SDS011;53438;48.898;2.308;2022-12-18T07:05:06;28.10;;;12.20;;
66581;SDS011;53438;48.898;2.308;2022-12-18T07:07:33;31.97;;;13.17;;
66581;SDS011;53438;48.898;2.308;2022-12-18T07:09:59;28.33;;;13.02;;
66581;SDS011;53438;48.898;2.308;2022-12-18T07:12:24;27.50;;;12.67;;
66581;SDS011;53438;48.898;2.308;2022-12-18T07:14:51;33.63;;;13.18;;
66581;SDS011;53438;48.898;2.308;2022-12-18T07:17:16;27.20;;;12.77;;
66581;SDS011;53438;48.898;2.308;2022-12-18T07:19:41;29.80;;;12.53;;
66581;SDS011;53438;48.898;2.308;2022-12-18T07:22:07;33.30;;;13.43;;
66581;SDS011;53438;48.898;2.308;2022-12-18T07:24:33;31.87;;;12.87;;
66581;SDS011;53438;48.898;2.308;2022-12-18T07:26:59;29.45;;;12.27;;
66581;SDS011;53438;48.898;2.308;2022-12-18T07:29:24;29.47;;;13.67;;
66581;SDS011;53438;48.898;2.308;2022-12-18T07:31:50;26.95;;;12.63;;
66581;SDS011;53438;48.898;2.308;2022-12-18T07:34:16;28.67;;;12.80;;
66581;SDS011;53438;48.898;2.308;2022-12-18T07:36:41;30.23;;;14.67;;
66581;SDS011;53438;48.898;2.308;2022-12-18T07:39:07;27.98;;;12.25;;
66581;SDS011;53438;48.898;2.308;2022-12-18T07:41:32;27.95;;;12.73;;
66581;SDS011;53438;48.898;2.308;2022-12-18T07:43:58;30.83;;;12.43;;
66581;SDS011;53438;48.898;2.308;2022-12-18T07:46:23;30.73;;;12.85;;
66581;SDS011;53438;48.898;2.308;2022-12-18T07:48:49;25.93;;;11.60;;
66581;SDS011;53438;48.898;2.308;2022-12-18T07:51:14;29.73;;;12.40;;
66581;SDS011;53438;48.898;2.308;2022-12-18T07:53:41;27.27;;;13.30;;
66581;SDS011;53438;48.898;2.308;2022-12-18T07:56:08;26.93;;;12.70;;
66581;SDS011;53438;48.898;2.308;2022-12-18T07:58:35;24.38;;;11.48;;
66581;SDS011;53438;48.898;2.308;2022-12-18T08:01:02;28.90;;;12.37;;
66581;SDS011;53438;48.898;2.308;2022-12-18T08:03:32;29.40;;;12.30;;
66581;SDS011;53438;48.898;2.308;2022-12-18T08:06:02;26.77;;;12.98;;
66581;SDS011;53438;48.898;2.308;2022-12-18T08:08:29;34.10;;;13.60;;
66581;SDS011;53438;48.898;2.308;2022-12-18T08:10:55;29.13;;;12.45;;
66581;SDS011;53438;48.898;2.308;2022-12-18T08:13:21;27.63;;;12.02;;
66581;SDS011;53438;48.898;2.308;2022-12-18T08:15:55;30.45;;;12.65;;
66581;SDS011;53438;48.898;2.308;2022-12-18T08:18:28;27.90;;;12.20;;
66581;SDS011;53438;48.898;2.308;2022-12-18T08:20:54;27.77;;;11.90;;
66581;SDS011;53438;48.898;2.308;2022-12-18T08:23:20;26.75;;;12.52;;
66581;SDS011;53438;48.898;2.308;2022-12-18T08:25:46;30.23;;;12.50;;
66581;SDS011;53438;48.898;2.308;2022-12-18T08:28:11;28.97;;;12.10;;
66581;SDS011;53438;48.898;2.308;2022-12-18T08:30:37;28.53;;;12.73;;
66581;SDS011;53438;48.898;2.308;2022-12-18T08:33:02;29.23;;;12.63;;
66581;SDS011;53438;48.898;2.308;2022-12-18T08:35:27;31.92;;;13.38;;
66581;SDS011;53438;48.898;2.308;2022-12-18T08:37:53;28.33;;;12.90;;
66581;SDS011;53438;48.898;2.308;2022-12-18T08:40:18;32.53;;;13.97;;
66581;SDS011;53438;48.898;2.308;2022-12-18T08:42:43;26.93;;;13.37;;
66581;SDS011;53438;48.898;2.308;2022-12-18T08:45:27;27.52;;;11.88;;
66581;SDS011;53438;48.898;2.308;2022-12-18T08:47:53;32.03;;;13.73;;
66581;SDS011;53438;48.898;2.308;2022-12-18T08:50:18;32.30;;;13.40;;
66581;SDS011;53438;48.898;2.308;2022-12-18T08:52:44;33.25;;;12.02;;
66581;SDS011;53438;48.898;2.308;2022-12-18T08:55:10;31.80;;;14.03;;
66581;SDS011;53438;48.898;2.308;2022-12-18T08:57:35;30.50;;;12.57;;
66581;SDS011;53438;48.898;2.308;2022-12-18T09:00:01;27.80;;;11.60;;
66581;SDS011;53438;48.898;2.308;2022-12-18T09:02:27;26.30;;;11.63;;
66581;SDS011;53438;48.898;2.308;2022-12-18T09:04:53;31.80;;;12.73;;
66581;SDS011;53438;48.898;2.308;2022-12-18T09:07:18;29.50;;;11.67;;
66581;SDS011;53438;48.898;2.308;2022-12-18T09:09:43;28.70;;;11.60;;
66581;SDS011;53438;48.898;2.308;2022-12-18T09:12:09;29.97;;;13.23;;
66581;SDS011;53438;48.898;2.308;2022-12-18T09:14:34;26.27;;;11.40;;
66581;SDS011;53438;48.898;2.308;2022-12-18T09:17:00;29.45;;;12.52;;
66581;SDS011;53438;48.898;2.308;2022-12-18T09:19:26;29.77;;;12.97;;
66581;SDS011;53438;48.898;2.308;2022-12-18T09:21:51;27.13;;;12.67;;
66581;SDS011;53438;48.898;2.308;2022-12-18T09:24:16;29.20;;;13.10;;
66581;SDS011;53438;48.898;2.308;2022-12-18T09:26:42;33.57;;;13.77;;
66581;SDS011;53438;48.898;2.308;2022-12-18T09:29:08;30.45;;;12.68;;
66581;SDS011;53438;48.898;2.308;2022-12-18T09:31:34;34.07;;;14.53;;
66581;SDS011;53438;48.898;2.308;2022-12-18T09:33:59;35.30;;;14.20;;
66581;SDS011;53438;48.898;2.308;2022-12-18T09:36:24;32.47;;;13.73;;
66581;SDS011;53438;48.898;2.308;2022-12-18T09:38:50;30.93;;;13.17;;
66581;SDS011;53438;48.898;2.308;2022-12-18T09:43:48;32.70;;;14.52;;
66581;SDS011;53438;48.898;2.308;2022-12-18T09:46:23;29.27;;;13.80;;
66581;SDS011;53438;48.898;2.308;2022-12-18T09:49:02;30.20;;;12.48;;
66581;SDS011;53438;48.898;2.308;2022-12-18T09:51:33;34.43;;;13.90;;
66581;SDS011;53438;48.898;2.308;2022-12-18T09:54:06;30.55;;;12.57;;
66581;SDS011;53438;48.898;2.308;2022-12-18T09:56:38;29.48;;;13.10;;
66581;SDS011;53438;48.898;2.308;2022-12-18T09:59:09;30.77;;;12.13;;
66581;SDS011;53438;48.898;2.308;2022-12-18T10:01:43;33.17;;;13.73;;
66581;SDS011;53438;48.898;2.308;2022-12-18T10:04:08;28.75;;;13.45;;
66581;SDS011;53438;48.898;2.308;2022-12-18T10:07:22;28.90;;;13.07;;
66581;SDS011;53438;48.898;2.308;2022-12-18T10:14:57;34.83;;;14.00;;
66581;SDS011;53438;48.898;2.308;2022-12-18T10:17:49;33.67;;;13.57;;
66581;SDS011;53438;48.898;2.308;2022-12-18T10:20:19;31.13;;;13.60;;
66581;SDS011;53438;48.898;2.308;2022-12-18T10:25:26;30.05;;;13.77;;
66581;SDS011;53438;48.898;2.308;2022-12-18T10:28:07;33.10;;;14.00;;
66581;SDS011;53438;48.898;2.308;2022-12-18T10:30:37;26.48;;;12.88;;
66581;SDS011;53438;48.898;2.308;2022-12-18T10:33:04;34.35;;;13.43;;
66581;SDS011;53438;48.898;2.308;2022-12-18T10:35:29;28.80;;;14.23;;
66581;SDS011;53438;48.898;2.308;2022-12-18T10:40:32;32.92;;;14.57;;
66581;SDS011;53438;48.898;2.308;2022-12-18T10:43:12;36.90;;;14.32;;
66581;SDS011;53438;48.898;2.308;2022-12-18T10:45:39;32.50;;;14.55;;
66581;SDS011;53438;48.898;2.308;2022-12-18T10:48:05;29.73;;;13.33;;
66581;SDS011;53438;48.898;2.308;2022-12-18T10:50:45;32.55;;;14.38;;
66581;SDS011;53438;48.898;2.308;2022-12-18T10:53:13;32.30;;;13.55;;
66581;SDS011;53438;48.898;2.308;2022-12-18T10:55:44;33.08;;;13.68;;
66581;SDS011;53438;48.898;2.308;2022-12-18T11:06:10;28.50;;;13.90;;
66581;SDS011;53438;48.898;2.308;2022-12-18T11:08:37;33.22;;;14.23;;
66581;SDS011;53438;48.898;2.308;2022-12-18T11:11:04;41.28;;;16.17;;
66581;SDS011;53438;48.898;2.308;2022-12-18T11:13:41;32.77;;;14.07;;
66581;SDS011;53438;48.898;2.308;2022-12-18T11:16:20;39.28;;;17.30;;
66581;SDS011;53438;48.898;2.308;2022-12-18T11:18:45;32.25;;;14.63;;
66581;SDS011;53438;48.898;2.308;2022-12-18T11:21:11;29.63;;;13.70;;
66581;SDS011;53438;48.898;2.308;2022-12-18T11:23:44;30.55;;;14.32;;
66581;SDS011;53438;48.898;2.308;2022-12-18T11:26:13;31.52;;;14.23;;
66581;SDS011;53438;48.898;2.308;2022-12-18T11:28:40;35.50;;;14.40;;
66581;SDS011;53438;48.898;2.308;2022-12-18T11:33:37;34.93;;;14.47;;
66581;SDS011;53438;48.898;2.308;2022-12-18T11:36:04;35.90;;;15.30;;
66581;SDS011;53438;48.898;2.308;2022-12-18T11:38:35;29.17;;;14.25;;
66581;SDS011;53438;48.898;2.308;2022-12-18T11:41:04;34.03;;;15.02;;
66581;SDS011;53438;48.898;2.308;2022-12-18T11:49:07;37.85;;;14.60;;
66581;SDS011;53438;48.898;2.308;2022-12-18T11:51:53;32.10;;;13.20;;
66581;SDS011;53438;48.898;2.308;2022-12-18T11:54:25;31.38;;;14.18;;
66581;SDS011;53438;48.898;2.308;2022-12-18T11:56:53;33.27;;;13.63;;
66581;SDS011;53438;48.898;2.308;2022-12-18T12:08:06;39.63;;;15.65;;
66581;SDS011;53438;48.898;2.308;2022-12-18T12:13:36;33.50;;;13.50;;
66581;SDS011;53438;48.898;2.308;2022-12-18T12:16:29;31.85;;;14.95;;
66581;SDS011;53438;48.898;2.308;2022-12-18T12:30:09;29.08;;;12.45;;
66581;SDS011;53438;48.898;2.308;2022-12-18T12:32:45;29.07;;;13.70;;
66581;SDS011;53438;48.898;2.308;2022-12-18T12:40:49;28.58;;;14.05;;
66581;SDS011;53438;48.898;2.308;2022-12-18T12:50:56;33.53;;;14.53;;
66581;SDS011;53438;48.898;2.308;2022-12-18T12:53:26;36.05;;;14.93;;
66581;SDS011;53438;48.898;2.308;2022-12-18T12:55:56;29.27;;;13.50;;
66581;SDS011;53438;48.898;2.308;2022-12-18T12:58:26;30.48;;;12.90;;
66581;SDS011;53438;48.898;2.308;2022-12-18T13:01:13;33.10;;;15.43;;
66581;SDS011;53438;48.898;2.308;2022-12-18T13:09:11;31.33;;;13.73;;
66581;SDS011;53438;48.898;2.308;2022-12-18T13:14:29;28.30;;;14.45;;
66581;SDS011;53438;48.898;2.308;2022-12-18T13:17:14;31.08;;;13.40;;
66581;SDS011;53438;48.898;2.308;2022-12-18T13:19:40;30.63;;;13.07;;
66581;SDS011;53438;48.898;2.308;2022-12-18T13:22:12;35.90;;;14.73;;
66581;SDS011;53438;48.898;2.308;2022-12-18T13:24:49;35.25;;;14.95;;
66581;SDS011;53438;48.898;2.308;2022-12-18T13:35:38;33.00;;;15.27;;
66581;SDS011;53438;48.898;2.308;2022-12-18T13:38:19;32.03;;;14.93;;
66581;SDS011;53438;48.898;2.308;2022-12-18T13:40:57;30.35;;;13.30;;
66581;SDS011;53438;48.898;2.308;2022-12-18T13:51:19;37.10;;;15.45;;
66581;SDS011;53438;48.898;2.308;2022-12-18T13:53:58;31.10;;;14.18;;
66581;SDS011;53438;48.898;2.308;2022-12-18T13:56:25;32.70;;;15.38;;
66581;SDS011;53438;48.898;2.308;2022-12-18T13:59:03;31.17;;;13.43;;
66581;SDS011;53438;48.898;2.308;2022-12-18T14:01:41;31.73;;;14.10;;
66581;SDS011;53438;48.898;2.308;2022-12-18T14:04:18;33.30;;;14.98;;
66581;SDS011;53438;48.898;2.308;2022-12-18T14:09:30;30.70;;;14.35;;
66581;SDS011;53438;48.898;2.308;2022-12-18T14:12:00;34.43;;;14.17;;
66581;SDS011;53438;48.898;2.308;2022-12-18T14:14:45;31.73;;;14.70;;
66581;SDS011;53438;48.898;2.308;2022-12-18T14:17:13;32.67;;;14.50;;
66581;SDS011;53438;48.898;2.308;2022-12-18T14:19:46;33.20;;;14.10;;
66581;SDS011;53438;48.898;2.308;2022-12-18T14:22:15;35.13;;;14.40;;
66581;SDS011;53438;48.898;2.308;2022-12-18T14:24:43;28.07;;;13.90;;
66581;SDS011;53438;48.898;2.308;2022-12-18T14:27:20;35.47;;;14.52;;
66581;SDS011;53438;48.898;2.308;2022-12-18T14:29:48;33.00;;;15.05;;
66581;SDS011;53438;48.898;2.308;2022-12-18T14:32:17;31.10;;;14.40;;
66581;SDS011;53438;48.898;2.308;2022-12-18T14:34:45;33.35;;;14.90;;
66581;SDS011;53438;48.898;2.308;2022-12-18T14:37:25;30.95;;;14.20;;
66581;SDS011;53438;48.898;2.308;2022-12-18T14:39:59;33.33;;;15.20;;
66581;SDS011;53438;48.898;2.308;2022-12-18T14:42:26;34.30;;;15.63;;
66581;SDS011;53438;48.898;2.308;2022-12-18T14:47:55;31.98;;;14.85;;
66581;SDS011;53438;48.898;2.308;2022-12-18T14:50:21;32.17;;;14.60;;
66581;SDS011;53438;48.898;2.308;2022-12-18T14:52:46;33.28;;;15.23;;
66581;SDS011;53438;48.898;2.308;2022-12-18T14:55:18;33.35;;;14.50;;
66581;SDS011;53438;48.898;2.308;2022-12-18T14:57:45;28.80;;;14.63;;
66581;SDS011;53438;48.898;2.308;2022-12-18T15:00:17;32.58;;;14.70;;
66581;SDS011;53438;48.898;2.308;2022-12-18T15:02:52;31.88;;;14.25;;
66581;SDS011;53438;48.898;2.308;2022-12-18T15:05:26;32.63;;;14.73;;
66581;SDS011;53438;48.898;2.308;2022-12-18T15:07:54;25.73;;;13.57;;
66581;SDS011;53438;48.898;2.308;2022-12-18T15:10:22;30.43;;;14.17;;
66581;SDS011;53438;48.898;2.308;2022-12-18T15:12:48;28.05;;;14.30;;
66581;SDS011;53438;48.898;2.308;2022-12-18T15:18:29;33.40;;;14.15;;
66581;SDS011;53438;48.898;2.308;2022-12-18T15:20:58;34.17;;;14.50;;
66581;SDS011;53438;48.898;2.308;2022-12-18T15:26:16;32.38;;;14.38;;
66581;SDS011;53438;48.898;2.308;2022-12-18T15:34:10;32.08;;;14.50;;
66581;SDS011;53438;48.898;2.308;2022-12-18T15:36:38;33.47;;;14.70;;
66581;SDS011;53438;48.898;2.308;2022-12-18T15:39:04;29.23;;;14.05;;
66581;SDS011;53438;48.898;2.308;2022-12-18T15:41:31;31.23;;;15.40;;
66581;SDS011;53438;48.898;2.308;2022-12-18T15:43:58;34.17;;;14.27;;
66581;SDS011;53438;48.898;2.308;2022-12-18T15:46:24;32.23;;;13.67;;
66581;SDS011;53438;48.898;2.308;2022-12-18T15:48:52;28.58;;;13.77;;
66581;SDS011;53438;48.898;2.308;2022-12-18T15:54:04;31.73;;;13.88;;
66581;SDS011;53438;48.898;2.308;2022-12-18T15:56:31;32.10;;;14.70;;
66581;SDS011;53438;48.898;2.308;2022-12-18T15:59:19;28.23;;;13.88;;
66581;SDS011;53438;48.898;2.308;2022-12-18T16:01:49;29.80;;;13.80;;
66581;SDS011;53438;48.898;2.308;2022-12-18T16:04:18;35.65;;;14.75;;
66581;SDS011;53438;48.898;2.308;2022-12-18T16:06:48;34.78;;;14.95;;
66581;SDS011;53438;48.898;2.308;2022-12-18T16:09:14;33.20;;;14.80;;
66581;SDS011;53438;48.898;2.308;2022-12-18T16:11:41;31.53;;;14.10;;
66581;SDS011;53438;48.898;2.308;2022-12-18T16:14:18;27.35;;;13.18;;
66581;SDS011;53438;48.898;2.308;2022-12-18T16:16:49;28.63;;;13.27;;
66581;SDS011;53438;48.898;2.308;2022-12-18T16:19:16;31.15;;;13.95;;
66581;SDS011;53438;48.898;2.308;2022-12-18T16:21:43;30.30;;;13.82;;
66581;SDS011;53438;48.898;2.308;2022-12-18T16:24:15;29.13;;;13.57;;
66581;SDS011;53438;48.898;2.308;2022-12-18T16:26:42;31.80;;;14.15;;
66581;SDS011;53438;48.898;2.308;2022-12-18T16:29:08;30.30;;;12.70;;
66581;SDS011;53438;48.898;2.308;2022-12-18T16:31:34;28.52;;;14.23;;
66581;SDS011;53438;48.898;2.308;2022-12-18T16:34:19;30.88;;;14.82;;
66581;SDS011;53438;48.898;2.308;2022-12-18T16:36:56;30.70;;;13.80;;
66581;SDS011;53438;48.898;2.308;2022-12-18T16:39:23;31.15;;;15.15;;
66581;SDS011;53438;48.898;2.308;2022-12-18T16:41:49;30.48;;;14.38;;
66581;SDS011;53438;48.898;2.308;2022-12-18T16:44:14;31.10;;;14.00;;
66581;SDS011;53438;48.898;2.308;2022-12-18T16:46:40;29.13;;;14.82;;
66581;SDS011;53438;48.898;2.308;2022-12-18T16:49:10;28.53;;;13.20;;
66581;SDS011;53438;48.898;2.308;2022-12-18T16:51:37;30.13;;;14.25;;
66581;SDS011;53438;48.898;2.308;2022-12-18T16:54:02;30.60;;;14.43;;
66581;SDS011;53438;48.898;2.308;2022-12-18T16:56:28;29.05;;;13.52;;
66581;SDS011;53438;48.898;2.308;2022-12-18T16:58:54;31.83;;;14.30;;
66581;SDS011;53438;48.898;2.308;2022-12-18T17:01:21;27.77;;;13.80;;
66581;SDS011;53438;48.898;2.308;2022-12-18T17:03:53;25.55;;;13.60;;
66581;SDS011;53438;48.898;2.308;2022-12-18T17:06:21;28.60;;;14.20;;
66581;SDS011;53438;48.898;2.308;2022-12-18T17:08:47;30.92;;;13.80;;
66581;SDS011;53438;48.898;2.308;2022-12-18T17:11:13;30.17;;;14.57;;
66581;SDS011;53438;48.898;2.308;2022-12-18T17:13:39;30.88;;;14.02;;
66581;SDS011;53438;48.898;2.308;2022-12-18T17:16:04;34.00;;;14.77;;
66581;SDS011;53438;48.898;2.308;2022-12-18T17:18:31;30.85;;;15.25;;
66581;SDS011;53438;48.898;2.308;2022-12-18T17:21:01;34.78;;;16.80;;
66581;SDS011;53438;48.898;2.308;2022-12-18T17:23:28;31.65;;;16.08;;
66581;SDS011;53438;48.898;2.308;2022-12-18T17:25:55;30.10;;;14.77;;
66581;SDS011;53438;48.898;2.308;2022-12-18T17:28:21;33.85;;;16.25;;
66581;SDS011;53438;48.898;2.308;2022-12-18T17:30:47;31.90;;;15.23;;
66581;SDS011;53438;48.898;2.308;2022-12-18T17:33:13;44.20;;;19.80;;
66581;SDS011;53438;48.898;2.308;2022-12-18T17:35:45;35.38;;;17.35;;
66581;SDS011;53438;48.898;2.308;2022-12-18T17:38:11;33.47;;;16.37;;
66581;SDS011;53438;48.898;2.308;2022-12-18T17:40:36;34.95;;;15.30;;
66581;SDS011;53438;48.898;2.308;2022-12-18T17:43:04;32.55;;;15.15;;
66581;SDS011;53438;48.898;2.308;2022-12-18T17:45:30;29.30;;;15.05;;
66581;SDS011;53438;48.898;2.308;2022-12-18T17:47:56;33.40;;;15.87;;
66581;SDS011;53438;48.898;2.308;2022-12-18T17:50:21;33.63;;;15.73;;
66581;SDS011;53438;48.898;2.308;2022-12-18T17:52:46;28.95;;;15.35;;
66581;SDS011;53438;48.898;2.308;2022-12-18T17:55:12;29.83;;;14.80;;
66581;SDS011;53438;48.898;2.308;2022-12-18T17:57:37;31.23;;;15.33;;
66581;SDS011;53438;48.898;2.308;2022-12-18T18:00:03;29.00;;;14.47;;
66581;SDS011;53438;48.898;2.308;2022-12-18T18:02:29;31.98;;;16.10;;
66581;SDS011;53438;48.898;2.308;2022-12-18T18:04:55;30.47;;;15.27;;
66581;SDS011;53438;48.898;2.308;2022-12-18T18:07:21;35.53;;;16.50;;
66581;SDS011;53438;48.898;2.308;2022-12-18T18:09:46;34.83;;;16.20;;
66581;SDS011;53438;48.898;2.308;2022-12-18T18:12:11;33.00;;;15.90;;
66581;SDS011;53438;48.898;2.308;2022-12-18T18:14:55;33.58;;;17.15;;
66581;SDS011;53438;48.898;2.308;2022-12-18T18:17:21;35.97;;;19.23;;
66581;SDS011;53438;48.898;2.308;2022-12-18T18:19:46;38.87;;;19.07;;
66581;SDS011;53438;48.898;2.308;2022-12-18T18:22:11;39.43;;;18.30;;
66581;SDS011;53438;48.898;2.308;2022-12-18T18:24:37;34.17;;;16.80;;
66581;SDS011;53438;48.898;2.308;2022-12-18T18:27:02;32.90;;;16.58;;
66581;SDS011;53438;48.898;2.308;2022-12-18T18:29:28;34.27;;;16.63;;
66581;SDS011;53438;48.898;2.308;2022-12-18T18:31:56;31.58;;;16.25;;
66581;SDS011;53438;48.898;2.308;2022-12-18T18:34:23;34.53;;;17.13;;
66581;SDS011;53438;48.898;2.308;2022-12-18T18:36:50;32.45;;;15.48;;
66581;SDS011;53438;48.898;2.308;2022-12-18T18:39:15;34.83;;;17.40;;
66581;SDS011;53438;48.898;2.308;2022-12-18T18:41:41;35.38;;;16.88;;
66581;SDS011;53438;48.898;2.308;2022-12-18T18:44:07;36.57;;;18.40;;
66581;SDS011;53438;48.898;2.308;2022-12-18T18:46:34;35.65;;;17.27;;
66581;SDS011;53438;48.898;2.308;2022-12-18T18:48:59;37.37;;;17.47;;
66581;SDS011;53438;48.898;2.308;2022-12-18T18:51:24;37.53;;;18.47;;
66581;SDS011;53438;48.898;2.308;2022-12-18T18:53:50;36.17;;;16.97;;
66581;SDS011;53438;48.898;2.308;2022-12-18T18:56:18;40.83;;;17.38;;
66581;SDS011;53438;48.898;2.308;2022-12-18T18:58:45;34.13;;;16.58;;
66581;SDS011;53438;48.898;2.308;2022-12-18T19:01:20;33.60;;;17.10;;
66581;SDS011;53438;48.898;2.308;2022-12-18T19:03:46;34.33;;;16.83;;
66581;SDS011;53438;48.898;2.308;2022-12-18T19:06:16;33.63;;;17.48;;
66581;SDS011;53438;48.898;2.308;2022-12-18T19:08:48;34.17;;;17.00;;
66581;SDS011;53438;48.898;2.308;2022-12-18T19:11:14;30.08;;;16.52;;
66581;SDS011;53438;48.898;2.308;2022-12-18T19:13:59;36.15;;;17.88;;
66581;SDS011;53438;48.898;2.308;2022-12-18T19:16:26;33.58;;;17.02;;
66581;SDS011;53438;48.898;2.308;2022-12-18T19:18:52;31.75;;;16.42;;